Flatbush, Canada
Current Conditions -  °F | °C
As of 7:15 AM on Sunday 21 Dec 2014 (Local Time) from CYZH Reporting Station
Haze Haze  
Wind Chill:   Ceiling: 15000
Heat Index: 16°   Visibility: 6mi
Dew Point: 16°   Wind: 10mph
Humidity: 100%   Direction: 100°E
Pressure: 29.31"   Gusts: NA
Location:  54.68°N, 114.15°W
Report Text: CYZH 211415Z AUTO 10009KT 6SM BR BKN150 M09/M09 A2931 RMK SLP963
Loading
Personal Weather Stations






























Interactive Weather Map New forecast layout! Learn more

10-Day Weather Forecast

Advertisements
Track Severe Weather on mobile